sensor_id;sensor_type;location;lat;lon;timestamp;P1;durP1;ratioP1;P2;durP2;ratioP2
17987;SDS011;9119;50.932;5.342;2022-08-05T00:02:04;6.97;;;5.60;;
17987;SDS011;9119;50.932;5.342;2022-08-05T00:04:29;9.80;;;5.80;;
17987;SDS011;9119;50.932;5.342;2022-08-05T00:06:55;13.37;;;6.03;;
17987;SDS011;9119;50.932;5.342;2022-08-05T00:09:21;12.70;;;5.43;;
17987;SDS011;9119;50.932;5.342;2022-08-05T00:11:47;15.40;;;6.10;;
17987;SDS011;9119;50.932;5.342;2022-08-05T00:14:13;12.60;;;6.27;;
17987;SDS011;9119;50.932;5.342;2022-08-05T00:16:38;15.20;;;6.23;;
17987;SDS011;9119;50.932;5.342;2022-08-05T00:19:04;11.33;;;6.00;;
17987;SDS011;9119;50.932;5.342;2022-08-05T00:21:30;11.80;;;6.10;;
17987;SDS011;9119;50.932;5.342;2022-08-05T00:23:56;11.93;;;6.07;;
17987;SDS011;9119;50.932;5.342;2022-08-05T00:26:21;13.37;;;5.80;;
17987;SDS011;9119;50.932;5.342;2022-08-05T00:28:47;9.37;;;5.53;;
17987;SDS011;9119;50.932;5.342;2022-08-05T00:31:13;12.63;;;6.30;;
17987;SDS011;9119;50.932;5.342;2022-08-05T00:33:38;12.43;;;6.87;;
17987;SDS011;9119;50.932;5.342;2022-08-05T00:36:04;10.47;;;5.70;;
17987;SDS011;9119;50.932;5.342;2022-08-05T00:38:30;13.53;;;6.30;;
17987;SDS011;9119;50.932;5.342;2022-08-05T00:40:56;14.33;;;6.13;;
17987;SDS011;9119;50.932;5.342;2022-08-05T00:43:23;10.23;;;6.10;;
17987;SDS011;9119;50.932;5.342;2022-08-05T00:45:49;11.67;;;6.00;;
17987;SDS011;9119;50.932;5.342;2022-08-05T00:48:19;13.57;;;6.67;;
17987;SDS011;9119;50.932;5.342;2022-08-05T00:50:47;11.23;;;6.10;;
17987;SDS011;9119;50.932;5.342;2022-08-05T00:53:15;12.43;;;5.67;;
17987;SDS011;9119;50.932;5.342;2022-08-05T00:55:42;12.40;;;6.53;;
17987;SDS011;9119;50.932;5.342;2022-08-05T00:58:09;10.10;;;5.53;;
17987;SDS011;9119;50.932;5.342;2022-08-05T01:00:35;9.33;;;5.77;;
17987;SDS011;9119;50.932;5.342;2022-08-05T01:03:01;13.03;;;6.00;;
17987;SDS011;9119;50.932;5.342;2022-08-05T01:05:27;11.87;;;6.40;;
17987;SDS011;9119;50.932;5.342;2022-08-05T01:07:52;25.37;;;9.37;;
17987;SDS011;9119;50.932;5.342;2022-08-05T01:10:19;17.57;;;8.20;;
17987;SDS011;9119;50.932;5.342;2022-08-05T01:12:52;19.63;;;8.50;;
17987;SDS011;9119;50.932;5.342;2022-08-05T01:15:20;15.13;;;8.03;;
17987;SDS011;9119;50.932;5.342;2022-08-05T01:17:50;16.50;;;7.70;;
17987;SDS011;9119;50.932;5.342;2022-08-05T01:20:38;18.97;;;8.03;;
17987;SDS011;9119;50.932;5.342;2022-08-05T01:29:02;14.73;;;8.07;;
17987;SDS011;9119;50.932;5.342;2022-08-05T01:31:45;15.80;;;7.60;;
17987;SDS011;9119;50.932;5.342;2022-08-05T01:36:50;14.90;;;7.33;;
17987;SDS011;9119;50.932;5.342;2022-08-05T01:39:20;13.97;;;7.07;;
17987;SDS011;9119;50.932;5.342;2022-08-05T01:41:46;18.07;;;8.53;;
17987;SDS011;9119;50.932;5.342;2022-08-05T01:44:14;16.37;;;7.40;;
17987;SDS011;9119;50.932;5.342;2022-08-05T01:46:42;17.53;;;8.00;;
17987;SDS011;9119;50.932;5.342;2022-08-05T01:49:10;16.47;;;7.87;;
17987;SDS011;9119;50.932;5.342;2022-08-05T01:51:40;14.17;;;7.57;;
17987;SDS011;9119;50.932;5.342;2022-08-05T01:54:07;16.73;;;7.80;;
17987;SDS011;9119;50.932;5.342;2022-08-05T01:56:36;14.30;;;7.20;;
17987;SDS011;9119;50.932;5.342;2022-08-05T01:59:05;15.47;;;7.47;;
17987;SDS011;9119;50.932;5.342;2022-08-05T02:01:35;16.70;;;8.70;;
17987;SDS011;9119;50.932;5.342;2022-08-05T02:04:02;15.30;;;8.40;;
17987;SDS011;9119;50.932;5.342;2022-08-05T02:06:30;13.07;;;7.87;;
17987;SDS011;9119;50.932;5.342;2022-08-05T02:08:57;15.27;;;8.23;;
17987;SDS011;9119;50.932;5.342;2022-08-05T02:11:22;13.60;;;8.13;;
17987;SDS011;9119;50.932;5.342;2022-08-05T02:13:52;18.00;;;8.27;;
17987;SDS011;9119;50.932;5.342;2022-08-05T02:16:26;19.57;;;9.07;;
17987;SDS011;9119;50.932;5.342;2022-08-05T02:19:42;15.33;;;8.83;;
17987;SDS011;9119;50.932;5.342;2022-08-05T02:22:12;17.10;;;9.13;;
17987;SDS011;9119;50.932;5.342;2022-08-05T02:25:11;14.13;;;8.23;;
17987;SDS011;9119;50.932;5.342;2022-08-05T02:27:41;16.90;;;8.20;;
17987;SDS011;9119;50.932;5.342;2022-08-05T02:30:13;15.50;;;8.47;;
17987;SDS011;9119;50.932;5.342;2022-08-05T02:32:42;17.47;;;8.60;;
17987;SDS011;9119;50.932;5.342;2022-08-05T02:35:14;16.00;;;8.33;;
17987;SDS011;9119;50.932;5.342;2022-08-05T02:37:43;18.20;;;8.47;;
17987;SDS011;9119;50.932;5.342;2022-08-05T02:40:10;12.17;;;7.60;;
17987;SDS011;9119;50.932;5.342;2022-08-05T02:42:37;24.87;;;8.07;;
17987;SDS011;9119;50.932;5.342;2022-08-05T02:45:03;15.20;;;8.07;;
17987;SDS011;9119;50.932;5.342;2022-08-05T02:47:31;12.80;;;7.47;;
17987;SDS011;9119;50.932;5.342;2022-08-05T02:49:59;16.80;;;7.80;;
17987;SDS011;9119;50.932;5.342;2022-08-05T02:52:25;13.23;;;7.43;;
17987;SDS011;9119;50.932;5.342;2022-08-05T02:54:53;14.07;;;7.90;;
17987;SDS011;9119;50.932;5.342;2022-08-05T02:57:19;11.93;;;7.10;;
17987;SDS011;9119;50.932;5.342;2022-08-05T02:59:47;12.73;;;7.77;;
17987;SDS011;9119;50.932;5.342;2022-08-05T03:02:16;18.83;;;8.00;;
17987;SDS011;9119;50.932;5.342;2022-08-05T03:04:46;11.60;;;7.67;;
17987;SDS011;9119;50.932;5.342;2022-08-05T03:07:14;17.13;;;8.17;;
17987;SDS011;9119;50.932;5.342;2022-08-05T03:09:42;13.00;;;8.10;;
17987;SDS011;9119;50.932;5.342;2022-08-05T03:12:08;15.13;;;8.40;;
17987;SDS011;9119;50.932;5.342;2022-08-05T03:14:34;18.00;;;8.10;;
17987;SDS011;9119;50.932;5.342;2022-08-05T03:17:00;17.27;;;8.67;;
17987;SDS011;9119;50.932;5.342;2022-08-05T03:19:25;17.07;;;8.57;;
17987;SDS011;9119;50.932;5.342;2022-08-05T03:21:51;22.30;;;8.60;;
17987;SDS011;9119;50.932;5.342;2022-08-05T03:24:17;18.57;;;9.27;;
17987;SDS011;9119;50.932;5.342;2022-08-05T03:26:44;14.23;;;8.40;;
17987;SDS011;9119;50.932;5.342;2022-08-05T03:29:10;18.43;;;9.17;;
17987;SDS011;9119;50.932;5.342;2022-08-05T03:31:35;17.50;;;9.37;;
17987;SDS011;9119;50.932;5.342;2022-08-05T03:34:02;16.63;;;9.77;;
17987;SDS011;9119;50.932;5.342;2022-08-05T03:36:28;20.60;;;9.87;;
17987;SDS011;9119;50.932;5.342;2022-08-05T03:38:55;21.47;;;10.10;;
17987;SDS011;9119;50.932;5.342;2022-08-05T03:41:21;18.00;;;9.70;;
17987;SDS011;9119;50.932;5.342;2022-08-05T03:43:47;17.00;;;9.67;;
17987;SDS011;9119;50.932;5.342;2022-08-05T03:46:12;23.17;;;10.57;;
17987;SDS011;9119;50.932;5.342;2022-08-05T03:48:38;17.17;;;9.97;;
17987;SDS011;9119;50.932;5.342;2022-08-05T03:51:19;17.17;;;10.07;;
17987;SDS011;9119;50.932;5.342;2022-08-05T03:53:56;21.00;;;10.03;;
17987;SDS011;9119;50.932;5.342;2022-08-05T03:56:36;21.57;;;10.73;;
17987;SDS011;9119;50.932;5.342;2022-08-05T03:59:06;18.73;;;11.03;;
17987;SDS011;9119;50.932;5.342;2022-08-05T04:01:38;20.03;;;10.57;;
17987;SDS011;9119;50.932;5.342;2022-08-05T04:04:08;18.17;;;10.53;;
17987;SDS011;9119;50.932;5.342;2022-08-05T04:06:36;17.87;;;11.20;;
17987;SDS011;9119;50.932;5.342;2022-08-05T04:09:03;24.40;;;11.23;;
17987;SDS011;9119;50.932;5.342;2022-08-05T04:11:36;22.53;;;11.27;;
17987;SDS011;9119;50.932;5.342;2022-08-05T04:14:02;18.47;;;11.77;;
17987;SDS011;9119;50.932;5.342;2022-08-05T04:16:28;27.07;;;12.00;;
17987;SDS011;9119;50.932;5.342;2022-08-05T04:18:56;25.87;;;12.20;;
17987;SDS011;9119;50.932;5.342;2022-08-05T04:21:21;25.40;;;12.80;;
17987;SDS011;9119;50.932;5.342;2022-08-05T04:23:47;23.53;;;11.97;;
17987;SDS011;9119;50.932;5.342;2022-08-05T04:26:14;22.83;;;11.33;;
17987;SDS011;9119;50.932;5.342;2022-08-05T04:28:40;33.07;;;12.20;;
17987;SDS011;9119;50.932;5.342;2022-08-05T04:31:05;23.90;;;12.10;;
17987;SDS011;9119;50.932;5.342;2022-08-05T04:33:31;26.80;;;12.33;;
17987;SDS011;9119;50.932;5.342;2022-08-05T04:35:57;21.73;;;11.63;;
17987;SDS011;9119;50.932;5.342;2022-08-05T04:38:23;21.87;;;11.63;;
17987;SDS011;9119;50.932;5.342;2022-08-05T04:40:48;21.40;;;12.17;;
17987;SDS011;9119;50.932;5.342;2022-08-05T04:43:14;22.20;;;12.33;;
17987;SDS011;9119;50.932;5.342;2022-08-05T04:45:40;34.53;;;12.93;;
17987;SDS011;9119;50.932;5.342;2022-08-05T04:48:07;22.03;;;12.03;;
17987;SDS011;9119;50.932;5.342;2022-08-05T04:50:46;20.87;;;13.47;;
17987;SDS011;9119;50.932;5.342;2022-08-05T04:53:14;17.13;;;11.67;;
17987;SDS011;9119;50.932;5.342;2022-08-05T04:55:41;24.47;;;13.73;;
17987;SDS011;9119;50.932;5.342;2022-08-05T04:58:08;29.20;;;13.63;;
17987;SDS011;9119;50.932;5.342;2022-08-05T05:00:35;25.30;;;13.47;;
17987;SDS011;9119;50.932;5.342;2022-08-05T05:03:02;28.83;;;12.93;;
17987;SDS011;9119;50.932;5.342;2022-08-05T05:05:29;23.90;;;13.10;;
17987;SDS011;9119;50.932;5.342;2022-08-05T05:07:59;26.83;;;14.67;;
17987;SDS011;9119;50.932;5.342;2022-08-05T05:10:25;23.40;;;13.13;;
17987;SDS011;9119;50.932;5.342;2022-08-05T05:12:51;25.83;;;12.80;;
17987;SDS011;9119;50.932;5.342;2022-08-05T05:15:17;23.60;;;13.33;;
17987;SDS011;9119;50.932;5.342;2022-08-05T05:17:42;20.33;;;13.23;;
17987;SDS011;9119;50.932;5.342;2022-08-05T05:20:09;24.40;;;13.50;;
17987;SDS011;9119;50.932;5.342;2022-08-05T05:22:36;30.23;;;15.07;;
17987;SDS011;9119;50.932;5.342;2022-08-05T05:25:02;21.40;;;13.03;;
17987;SDS011;9119;50.932;5.342;2022-08-05T05:27:29;25.17;;;13.10;;
17987;SDS011;9119;50.932;5.342;2022-08-05T05:29:56;27.30;;;13.57;;
17987;SDS011;9119;50.932;5.342;2022-08-05T05:32:22;25.80;;;13.03;;
17987;SDS011;9119;50.932;5.342;2022-08-05T05:34:48;23.23;;;12.67;;
17987;SDS011;9119;50.932;5.342;2022-08-05T05:37:13;26.33;;;13.80;;
17987;SDS011;9119;50.932;5.342;2022-08-05T05:39:39;25.97;;;13.63;;
17987;SDS011;9119;50.932;5.342;2022-08-05T05:42:05;20.93;;;11.93;;
17987;SDS011;9119;50.932;5.342;2022-08-05T05:44:31;25.23;;;13.73;;
17987;SDS011;9119;50.932;5.342;2022-08-05T05:46:57;25.67;;;13.37;;
17987;SDS011;9119;50.932;5.342;2022-08-05T05:49:23;23.43;;;13.97;;
17987;SDS011;9119;50.932;5.342;2022-08-05T05:51:50;23.60;;;13.70;;
17987;SDS011;9119;50.932;5.342;2022-08-05T05:54:15;24.33;;;13.60;;
17987;SDS011;9119;50.932;5.342;2022-08-05T05:56:41;26.23;;;13.07;;
17987;SDS011;9119;50.932;5.342;2022-08-05T05:59:07;22.73;;;12.60;;
17987;SDS011;9119;50.932;5.342;2022-08-05T06:01:33;20.53;;;11.30;;
17987;SDS011;9119;50.932;5.342;2022-08-05T06:03:59;21.70;;;10.80;;
17987;SDS011;9119;50.932;5.342;2022-08-05T06:06:25;19.87;;;10.43;;
17987;SDS011;9119;50.932;5.342;2022-08-05T06:08:51;20.73;;;10.80;;
17987;SDS011;9119;50.932;5.342;2022-08-05T06:11:16;17.57;;;10.77;;
17987;SDS011;9119;50.932;5.342;2022-08-05T06:13:42;30.50;;;10.80;;
17987;SDS011;9119;50.932;5.342;2022-08-05T06:16:08;15.87;;;10.03;;
17987;SDS011;9119;50.932;5.342;2022-08-05T06:18:33;18.27;;;9.70;;
17987;SDS011;9119;50.932;5.342;2022-08-05T06:21:01;19.30;;;9.93;;
17987;SDS011;9119;50.932;5.342;2022-08-05T06:23:27;16.73;;;10.17;;
17987;SDS011;9119;50.932;5.342;2022-08-05T06:25:54;16.87;;;10.17;;
17987;SDS011;9119;50.932;5.342;2022-08-05T06:28:20;32.70;;;14.90;;
17987;SDS011;9119;50.932;5.342;2022-08-05T06:30:46;18.03;;;10.20;;
17987;SDS011;9119;50.932;5.342;2022-08-05T06:33:11;23.50;;;10.53;;
17987;SDS011;9119;50.932;5.342;2022-08-05T06:35:37;20.33;;;10.73;;
17987;SDS011;9119;50.932;5.342;2022-08-05T06:38:02;20.57;;;10.97;;
17987;SDS011;9119;50.932;5.342;2022-08-05T06:40:28;18.13;;;10.27;;
17987;SDS011;9119;50.932;5.342;2022-08-05T06:42:54;20.00;;;11.00;;
17987;SDS011;9119;50.932;5.342;2022-08-05T06:45:20;19.70;;;10.93;;
17987;SDS011;9119;50.932;5.342;2022-08-05T06:47:46;20.93;;;11.33;;
17987;SDS011;9119;50.932;5.342;2022-08-05T06:50:11;17.70;;;10.37;;
17987;SDS011;9119;50.932;5.342;2022-08-05T06:52:37;16.47;;;9.63;;
17987;SDS011;9119;50.932;5.342;2022-08-05T06:55:03;21.07;;;10.33;;
17987;SDS011;9119;50.932;5.342;2022-08-05T06:57:29;19.47;;;9.70;;
17987;SDS011;9119;50.932;5.342;2022-08-05T06:59:55;17.60;;;9.60;;
17987;SDS011;9119;50.932;5.342;2022-08-05T07:02:20;16.70;;;9.00;;
17987;SDS011;9119;50.932;5.342;2022-08-05T07:04:46;14.73;;;8.03;;
17987;SDS011;9119;50.932;5.342;2022-08-05T07:07:12;18.10;;;8.57;;
17987;SDS011;9119;50.932;5.342;2022-08-05T07:09:37;12.83;;;7.87;;
17987;SDS011;9119;50.932;5.342;2022-08-05T07:12:03;13.97;;;7.77;;
17987;SDS011;9119;50.932;5.342;2022-08-05T07:14:29;14.53;;;7.53;;
17987;SDS011;9119;50.932;5.342;2022-08-05T07:17:13;13.77;;;8.10;;
17987;SDS011;9119;50.932;5.342;2022-08-05T07:19:39;13.63;;;7.77;;
17987;SDS011;9119;50.932;5.342;2022-08-05T07:22:04;16.30;;;7.53;;
17987;SDS011;9119;50.932;5.342;2022-08-05T07:24:30;13.93;;;7.77;;
17987;SDS011;9119;50.932;5.342;2022-08-05T07:26:55;13.30;;;7.13;;
17987;SDS011;9119;50.932;5.342;2022-08-05T07:29:21;13.23;;;7.43;;
17987;SDS011;9119;50.932;5.342;2022-08-05T07:31:47;15.47;;;7.77;;
17987;SDS011;9119;50.932;5.342;2022-08-05T07:34:12;14.23;;;7.37;;
17987;SDS011;9119;50.932;5.342;2022-08-05T07:36:38;19.00;;;7.57;;
17987;SDS011;9119;50.932;5.342;2022-08-05T07:39:04;12.60;;;8.50;;
17987;SDS011;9119;50.932;5.342;2022-08-05T07:41:31;15.67;;;7.80;;
17987;SDS011;9119;50.932;5.342;2022-08-05T07:43:58;14.33;;;8.17;;
17987;SDS011;9119;50.932;5.342;2022-08-05T07:46:25;14.03;;;8.63;;
17987;SDS011;9119;50.932;5.342;2022-08-05T07:48:56;15.50;;;8.93;;
17987;SDS011;9119;50.932;5.342;2022-08-05T07:51:23;19.70;;;10.83;;
17987;SDS011;9119;50.932;5.342;2022-08-05T07:53:49;20.97;;;8.40;;
17987;SDS011;9119;50.932;5.342;2022-08-05T07:56:15;11.47;;;6.20;;
17987;SDS011;9119;50.932;5.342;2022-08-05T07:58:40;13.73;;;6.47;;
17987;SDS011;9119;50.932;5.342;2022-08-05T08:01:06;11.53;;;5.87;;
17987;SDS011;9119;50.932;5.342;2022-08-05T08:03:32;15.00;;;5.97;;
17987;SDS011;9119;50.932;5.342;2022-08-05T08:05:58;12.27;;;5.87;;
17987;SDS011;9119;50.932;5.342;2022-08-05T08:08:23;15.03;;;6.40;;
17987;SDS011;9119;50.932;5.342;2022-08-05T08:10:49;13.83;;;6.17;;
17987;SDS011;9119;50.932;5.342;2022-08-05T08:13:15;11.83;;;5.70;;
17987;SDS011;9119;50.932;5.342;2022-08-05T08:15:40;12.43;;;6.00;;
17987;SDS011;9119;50.932;5.342;2022-08-05T08:18:06;11.27;;;5.67;;
17987;SDS011;9119;50.932;5.342;2022-08-05T08:20:32;14.80;;;6.37;;
17987;SDS011;9119;50.932;5.342;2022-08-05T08:22:58;14.83;;;5.87;;
17987;SDS011;9119;50.932;5.342;2022-08-05T08:25:25;14.77;;;6.27;;
17987;SDS011;9119;50.932;5.342;2022-08-05T08:27:52;12.33;;;6.10;;
17987;SDS011;9119;50.932;5.342;2022-08-05T08:30:19;14.13;;;6.00;;
17987;SDS011;9119;50.932;5.342;2022-08-05T08:32:44;20.10;;;7.20;;
17987;SDS011;9119;50.932;5.342;2022-08-05T08:35:10;13.60;;;6.37;;
17987;SDS011;9119;50.932;5.342;2022-08-05T08:37:36;21.90;;;9.17;;
17987;SDS011;9119;50.932;5.342;2022-08-05T08:40:03;9.57;;;6.17;;
17987;SDS011;9119;50.932;5.342;2022-08-05T08:42:29;18.87;;;7.10;;
17987;SDS011;9119;50.932;5.342;2022-08-05T08:44:56;14.53;;;7.60;;
17987;SDS011;9119;50.932;5.342;2022-08-05T08:47:23;12.63;;;7.07;;
17987;SDS011;9119;50.932;5.342;2022-08-05T08:49:51;13.97;;;7.63;;
17987;SDS011;9119;50.932;5.342;2022-08-05T08:52:24;15.43;;;7.57;;
17987;SDS011;9119;50.932;5.342;2022-08-05T08:54:54;16.23;;;7.60;;
17987;SDS011;9119;50.932;5.342;2022-08-05T08:57:20;19.17;;;7.87;;
17987;SDS011;9119;50.932;5.342;2022-08-05T08:59:47;19.40;;;7.50;;
17987;SDS011;9119;50.932;5.342;2022-08-05T09:02:14;17.40;;;8.13;;
17987;SDS011;9119;50.932;5.342;2022-08-05T09:04:42;20.63;;;7.87;;
17987;SDS011;9119;50.932;5.342;2022-08-05T09:07:09;16.93;;;8.33;;
17987;SDS011;9119;50.932;5.342;2022-08-05T09:09:35;18.13;;;8.80;;
17987;SDS011;9119;50.932;5.342;2022-08-05T09:12:02;12.17;;;8.50;;
17987;SDS011;9119;50.932;5.342;2022-08-05T09:14:32;18.20;;;8.37;;
17987;SDS011;9119;50.932;5.342;2022-08-05T09:17:02;18.50;;;8.63;;
17987;SDS011;9119;50.932;5.342;2022-08-05T09:19:30;12.60;;;8.47;;
17987;SDS011;9119;50.932;5.342;2022-08-05T09:21:55;18.77;;;8.93;;
17987;SDS011;9119;50.932;5.342;2022-08-05T09:24:21;16.80;;;8.40;;
17987;SDS011;9119;50.932;5.342;2022-08-05T09:26:49;19.00;;;9.07;;
17987;SDS011;9119;50.932;5.342;2022-08-05T09:29:16;21.10;;;8.93;;
17987;SDS011;9119;50.932;5.342;2022-08-05T09:31:42;16.43;;;7.60;;
17987;SDS011;9119;50.932;5.342;2022-08-05T09:34:09;20.13;;;8.47;;
17987;SDS011;9119;50.932;5.342;2022-08-05T09:39:11;15.93;;;7.13;;
17987;SDS011;9119;50.932;5.342;2022-08-05T09:44:43;16.50;;;6.90;;
17987;SDS011;9119;50.932;5.342;2022-08-05T09:49:47;18.10;;;6.37;;
17987;SDS011;9119;50.932;5.342;2022-08-05T09:52:17;10.43;;;5.57;;
17987;SDS011;9119;50.932;5.342;2022-08-05T09:55:03;11.53;;;5.13;;
17987;SDS011;9119;50.932;5.342;2022-08-05T09:57:33;14.03;;;5.17;;
17987;SDS011;9119;50.932;5.342;2022-08-05T10:00:20;11.63;;;5.17;;
17987;SDS011;9119;50.932;5.342;2022-08-05T10:02:49;7.77;;;4.97;;
17987;SDS011;9119;50.932;5.342;2022-08-05T10:05:20;13.43;;;5.93;;
17987;SDS011;9119;50.932;5.342;2022-08-05T10:07:49;11.03;;;5.27;;
17987;SDS011;9119;50.932;5.342;2022-08-05T10:11:11;14.47;;;4.43;;
17987;SDS011;9119;50.932;5.342;2022-08-05T10:13:08;13.53;;;4.93;;
17987;SDS011;9119;50.932;5.342;2022-08-05T10:15:34;9.70;;;4.33;;
17987;SDS011;9119;50.932;5.342;2022-08-05T10:18:06;10.43;;;4.47;;
17987;SDS011;9119;50.932;5.342;2022-08-05T10:20:37;12.40;;;5.40;;
17987;SDS011;9119;50.932;5.342;2022-08-05T10:23:26;12.27;;;5.70;;
17987;SDS011;9119;50.932;5.342;2022-08-05T10:25:56;10.10;;;5.60;;
17987;SDS011;9119;50.932;5.342;2022-08-05T10:28:23;10.50;;;5.67;;
17987;SDS011;9119;50.932;5.342;2022-08-05T10:30:49;9.73;;;5.73;;
17987;SDS011;9119;50.932;5.342;2022-08-05T10:33:17;15.53;;;5.90;;
17987;SDS011;9119;50.932;5.342;2022-08-05T10:35:43;10.63;;;4.60;;
17987;SDS011;9119;50.932;5.342;2022-08-05T10:38:09;12.30;;;3.93;;
17987;SDS011;9119;50.932;5.342;2022-08-05T10:43:11;10.50;;;2.80;;
17987;SDS011;9119;50.932;5.342;2022-08-05T10:45:37;4.63;;;2.70;;
17987;SDS011;9119;50.932;5.342;2022-08-05T10:51:08;8.47;;;3.17;;
17987;SDS011;9119;50.932;5.342;2022-08-05T10:53:57;8.00;;;2.90;;
17987;SDS011;9119;50.932;5.342;2022-08-05T10:56:26;8.53;;;3.37;;
17987;SDS011;9119;50.932;5.342;2022-08-05T11:04:09;7.80;;;2.60;;
17987;SDS011;9119;50.932;5.342;2022-08-05T11:09:47;12.70;;;3.40;;
17987;SDS011;9119;50.932;5.342;2022-08-05T11:14:49;8.73;;;2.60;;
17987;SDS011;9119;50.932;5.342;2022-08-05T11:17:48;6.93;;;2.30;;
17987;SDS011;9119;50.932;5.342;2022-08-05T11:23:23;6.80;;;2.30;;
17987;SDS011;9119;50.932;5.342;2022-08-05T11:33:28;7.50;;;2.70;;
17987;SDS011;9119;50.932;5.342;2022-08-05T11:36:10;9.37;;;2.73;;
17987;SDS011;9119;50.932;5.342;2022-08-05T11:41:15;7.47;;;2.80;;
17987;SDS011;9119;50.932;5.342;2022-08-05T11:43:58;7.87;;;2.37;;
17987;SDS011;9119;50.932;5.342;2022-08-05T11:46:28;11.43;;;2.57;;
17987;SDS011;9119;50.932;5.342;2022-08-05T11:48:54;3.23;;;1.90;;
17987;SDS011;9119;50.932;5.342;2022-08-05T11:51:22;5.60;;;2.10;;
17987;SDS011;9119;50.932;5.342;2022-08-05T11:53:48;5.33;;;2.53;;
17987;SDS011;9119;50.932;5.342;2022-08-05T11:56:14;5.87;;;2.23;;
17987;SDS011;9119;50.932;5.342;2022-08-05T11:58:42;13.60;;;2.30;;
17987;SDS011;9119;50.932;5.342;2022-08-05T12:01:09;7.17;;;1.87;;
17987;SDS011;9119;50.932;5.342;2022-08-05T12:03:41;8.77;;;2.30;;
17987;SDS011;9119;50.932;5.342;2022-08-05T12:06:10;7.47;;;1.70;;
17987;SDS011;9119;50.932;5.342;2022-08-05T12:11:28;6.30;;;1.60;;
17987;SDS011;9119;50.932;5.342;2022-08-05T12:13:58;5.27;;;1.50;;
17987;SDS011;9119;50.932;5.342;2022-08-05T12:16:32;4.57;;;1.73;;
17987;SDS011;9119;50.932;5.342;2022-08-05T12:18:59;6.10;;;1.77;;
17987;SDS011;9119;50.932;5.342;2022-08-05T12:21:29;3.60;;;1.40;;
17987;SDS011;9119;50.932;5.342;2022-08-05T12:26:31;3.37;;;1.37;;
17987;SDS011;9119;50.932;5.342;2022-08-05T12:29:12;4.23;;;1.80;;
17987;SDS011;9119;50.932;5.342;2022-08-05T12:31:46;6.50;;;1.93;;
17987;SDS011;9119;50.932;5.342;2022-08-05T12:34:30;3.83;;;1.60;;
17987;SDS011;9119;50.932;5.342;2022-08-05T12:37:01;2.13;;;1.40;;
17987;SDS011;9119;50.932;5.342;2022-08-05T12:39:39;2.83;;;1.57;;
17987;SDS011;9119;50.932;5.342;2022-08-05T12:42:10;3.67;;;1.50;;
17987;SDS011;9119;50.932;5.342;2022-08-05T12:44:37;9.43;;;1.60;;
17987;SDS011;9119;50.932;5.342;2022-08-05T12:47:04;4.10;;;1.27;;
17987;SDS011;9119;50.932;5.342;2022-08-05T12:49:43;6.47;;;1.60;;
17987;SDS011;9119;50.932;5.342;2022-08-05T12:52:18;3.63;;;1.70;;
17987;SDS011;9119;50.932;5.342;2022-08-05T12:54:44;7.27;;;1.53;;
17987;SDS011;9119;50.932;5.342;2022-08-05T12:57:13;4.93;;;1.40;;
17987;SDS011;9119;50.932;5.342;2022-08-05T12:59:49;3.53;;;1.30;;
17987;SDS011;9119;50.932;5.342;2022-08-05T13:02:18;4.03;;;1.43;;
17987;SDS011;9119;50.932;5.342;2022-08-05T13:04:46;4.57;;;1.40;;
17987;SDS011;9119;50.932;5.342;2022-08-05T13:07:15;2.90;;;1.40;;
17987;SDS011;9119;50.932;5.342;2022-08-05T13:12:23;5.83;;;1.40;;
17987;SDS011;9119;50.932;5.342;2022-08-05T13:14:50;5.10;;;1.47;;
17987;SDS011;9119;50.932;5.342;2022-08-05T13:17:21;4.13;;;1.37;;
17987;SDS011;9119;50.932;5.342;2022-08-05T13:20:03;3.97;;;1.53;;
17987;SDS011;9119;50.932;5.342;2022-08-05T13:22:37;5.93;;;1.43;;
17987;SDS011;9119;50.932;5.342;2022-08-05T13:25:05;8.07;;;1.60;;
17987;SDS011;9119;50.932;5.342;2022-08-05T13:27:34;3.97;;;1.17;;
17987;SDS011;9119;50.932;5.342;2022-08-05T13:30:02;5.50;;;1.37;;
17987;SDS011;9119;50.932;5.342;2022-08-05T13:32:29;2.70;;;1.30;;
17987;SDS011;9119;50.932;5.342;2022-08-05T13:34:54;4.23;;;1.17;;
17987;SDS011;9119;50.932;5.342;2022-08-05T13:37:20;3.20;;;1.10;;
17987;SDS011;9119;50.932;5.342;2022-08-05T13:39:50;2.27;;;1.20;;
17987;SDS011;9119;50.932;5.342;2022-08-05T13:42:21;3.50;;;1.20;;
17987;SDS011;9119;50.932;5.342;2022-08-05T13:44:54;3.87;;;1.30;;
17987;SDS011;9119;50.932;5.342;2022-08-05T13:47:21;5.47;;;1.13;;
17987;SDS011;9119;50.932;5.342;2022-08-05T13:49:48;3.97;;;1.30;;
17987;SDS011;9119;50.932;5.342;2022-08-05T13:52:19;4.50;;;1.67;;
17987;SDS011;9119;50.932;5.342;2022-08-05T13:54:50;2.37;;;1.20;;
17987;SDS011;9119;50.932;5.342;2022-08-05T13:57:18;6.07;;;1.30;;
17987;SDS011;9119;50.932;5.342;2022-08-05T13:59:45;8.87;;;1.77;;
17987;SDS011;9119;50.932;5.342;2022-08-05T14:02:11;5.87;;;2.20;;
17987;SDS011;9119;50.932;5.342;2022-08-05T14:04:39;5.50;;;1.73;;
17987;SDS011;9119;50.932;5.342;2022-08-05T14:07:28;6.30;;;1.87;;
17987;SDS011;9119;50.932;5.342;2022-08-05T14:09:58;3.53;;;1.30;;
17987;SDS011;9119;50.932;5.342;2022-08-05T14:12:24;7.50;;;1.37;;
17987;SDS011;9119;50.932;5.342;2022-08-05T14:14:50;4.30;;;1.20;;
17987;SDS011;9119;50.932;5.342;2022-08-05T14:17:15;3.07;;;1.30;;
17987;SDS011;9119;50.932;5.342;2022-08-05T14:19:41;7.43;;;1.30;;
17987;SDS011;9119;50.932;5.342;2022-08-05T14:22:08;2.73;;;1.03;;
17987;SDS011;9119;50.932;5.342;2022-08-05T14:24:34;3.13;;;1.20;;
17987;SDS011;9119;50.932;5.342;2022-08-05T14:27:00;5.30;;;1.00;;
17987;SDS011;9119;50.932;5.342;2022-08-05T14:29:26;3.03;;;1.20;;
17987;SDS011;9119;50.932;5.342;2022-08-05T14:31:52;10.00;;;1.50;;
17987;SDS011;9119;50.932;5.342;2022-08-05T14:34:18;2.83;;;1.37;;
17987;SDS011;9119;50.932;5.342;2022-08-05T14:36:44;3.37;;;1.37;;
17987;SDS011;9119;50.932;5.342;2022-08-05T14:39:09;3.53;;;0.90;;
17987;SDS011;9119;50.932;5.342;2022-08-05T14:41:35;6.60;;;1.20;;
17987;SDS011;9119;50.932;5.342;2022-08-05T14:44:01;2.97;;;1.20;;
17987;SDS011;9119;50.932;5.342;2022-08-05T14:46:27;2.37;;;0.80;;
17987;SDS011;9119;50.932;5.342;2022-08-05T14:48:53;7.17;;;1.27;;
17987;SDS011;9119;50.932;5.342;2022-08-05T14:51:19;7.00;;;1.93;;
17987;SDS011;9119;50.932;5.342;2022-08-05T14:53:45;3.97;;;1.20;;
17987;SDS011;9119;50.932;5.342;2022-08-05T14:56:13;5.87;;;1.30;;
17987;SDS011;9119;50.932;5.342;2022-08-05T14:58:42;2.30;;;1.10;;
17987;SDS011;9119;50.932;5.342;2022-08-05T15:01:08;3.07;;;0.90;;
17987;SDS011;9119;50.932;5.342;2022-08-05T15:06:12;3.47;;;0.87;;
17987;SDS011;9119;50.932;5.342;2022-08-05T15:08:38;3.70;;;1.77;;
17987;SDS011;9119;50.932;5.342;2022-08-05T15:11:04;5.90;;;1.50;;
17987;SDS011;9119;50.932;5.342;2022-08-05T15:13:31;4.00;;;1.40;;
17987;SDS011;9119;50.932;5.342;2022-08-05T15:15:57;4.77;;;1.20;;
17987;SDS011;9119;50.932;5.342;2022-08-05T15:18:23;5.23;;;1.80;;
17987;SDS011;9119;50.932;5.342;2022-08-05T15:20:49;3.80;;;1.30;;
17987;SDS011;9119;50.932;5.342;2022-08-05T15:23:15;3.80;;;1.50;;
17987;SDS011;9119;50.932;5.342;2022-08-05T15:25:41;4.63;;;1.50;;
17987;SDS011;9119;50.932;5.342;2022-08-05T15:28:07;2.70;;;0.90;;
17987;SDS011;9119;50.932;5.342;2022-08-05T15:30:33;1.27;;;0.80;;
17987;SDS011;9119;50.932;5.342;2022-08-05T15:33:01;3.70;;;1.03;;
17987;SDS011;9119;50.932;5.342;2022-08-05T15:35:27;3.37;;;1.10;;
17987;SDS011;9119;50.932;5.342;2022-08-05T15:37:53;3.60;;;1.50;;
17987;SDS011;9119;50.932;5.342;2022-08-05T15:40:18;2.90;;;0.97;;
17987;SDS011;9119;50.932;5.342;2022-08-05T15:42:45;4.90;;;1.23;;
17987;SDS011;9119;50.932;5.342;2022-08-05T15:45:10;3.03;;;0.93;;
17987;SDS011;9119;50.932;5.342;2022-08-05T15:47:39;2.13;;;0.93;;
17987;SDS011;9119;50.932;5.342;2022-08-05T15:50:06;11.07;;;1.10;;
17987;SDS011;9119;50.932;5.342;2022-08-05T15:52:33;5.13;;;1.10;;